Latest Weather Observations for Goulburn Airport

IDN60901

Issued at 10:31 pm EST Thursday 26 May 2016 (issued every 10 minutes, with the page automatically refreshed every 10 minutes)

About weather observations | Map of Canberra area stations | Latest observations for Canberra area | Other Formats
Station Details ID: 070330 Name: GOULBURN AIRPORT AWS Lat: -34.81 Lon: 149.73 Height: 640.0 m
Data from the previous 72 hours. | See also: Recent months at Goulburn Airport
Date/Time
EST
Tmp

°C
App
Tmp
°C
Dew
Point
°C
Rel
Hum
%
Delta-T

°C
Wind Press
QNH
hPa
Press
MSL
hPa
Rain
since
9 am
mm
Dir
 
Spd
km/h
Gust
km/h
Spd
kts
Gust
kts
26/10:09pm 8.1 3.4 6.2 88 0.9 W 20 30 11 16 1003.5 1003.4 5.4
26/10:00pm 8.2 1.6 6.0 86 1.0 W 30 44 16 24 1003.5 1003.4 5.4
26/09:30pm 8.4 -0.2 6.5 88 0.9 W 41 63 22 34 1003.5 1003.4 5.4
26/09:15pm 8.7 0.5 6.7 87 1.0 WNW 39 57 21 31 1003.3 1003.2 5.2
26/09:00pm 8.8 0.7 7.1 89 0.8 WNW 39 52 21 28 1003.1 1003.1 5.2
26/08:49pm 8.9 2.1 7.5 91 0.7 WNW 33 43 18 23 1003.0 1003.0 5.2
26/08:30pm 9.1 2.9 7.9 92 0.6 WNW 30 41 16 22 1003.0 1003.0 5.0
26/08:25pm 9.1 2.5 7.9 92 0.6 WNW 32 43 17 23 1002.9 1002.9 5.0
26/08:00pm 8.9 1.7 7.7 92 0.6 W 35 50 19 27 1002.7 1002.6 4.4
26/07:34pm 9.1 1.0 7.1 87 1.0 WNW 39 57 21 31 1002.7 1002.6 4.0
26/07:30pm 9.3 1.7 7.7 90 0.8 WNW 37 48 20 26 1002.8 1002.7 3.8
26/07:26pm 9.3 1.7 7.6 89 0.8 WNW 37 48 20 26 1002.7 1002.6 3.6
26/07:00pm 9.6 3.8 8.0 90 0.8 WNW 28 41 15 22 1002.7 1002.6 3.0
26/06:34pm 9.5 4.6 8.3 92 0.6 WNW 24 32 13 17 1002.5 1002.4 3.0
26/06:30pm 9.4 3.7 8.2 92 0.6 WNW 28 37 15 20 1002.5 1002.4 3.0
26/06:22pm 9.4 2.9 8.0 91 0.7 WNW 32 46 17 25 1002.4 1002.3 3.0
26/06:00pm 9.7 2.9 7.6 87 1.0 WNW 33 43 18 23 1002.3 1002.2 3.0
26/05:46pm 9.8 3.9 7.6 86 1.1 WNW 28 39 15 21 1002.1 1002.0 3.0
26/05:30pm 9.8 3.1 7.2 84 1.3 WNW 32 39 17 21 1002.1 1002.0 3.0
26/05:29pm 9.8 3.1 7.4 85 1.2 WNW 32 41 17 22 1002.1 1002.0 3.0
26/05:00pm 10.2 4.4 8.1 87 1.1 WNW 28 37 15 20 1001.8 1001.7 3.0
26/04:30pm 10.3 4.1 7.7 84 1.3 WNW 30 41 16 22 1001.3 1001.2 3.0
26/04:00pm 10.9 5.1 8.1 83 1.4 WNW 28 43 15 23 1001.2 1001.1 3.0
26/03:30pm 11.0 4.3 8.2 83 1.4 NW 33 46 18 25 1001.1 1001.0 3.0
26/03:00pm 10.8 1.5 7.7 81 1.6 NW 46 59 25 32 1001.0 1000.9 3.0
26/02:30pm 11.1 1.8 7.6 79 1.8 NW 46 59 25 32 1001.1 1001.0 3.0
26/02:00pm 11.0 2.1 7.5 79 1.8 NW 44 63 24 34 1001.2 1001.1 3.0
26/01:51pm 10.9 2.1 7.2 78 1.8 NW 43 63 23 34 1001.3 1001.2 3.0
26/01:30pm 10.9 2.9 7.6 80 1.6 NW 39 54 21 29 1001.7 1001.6 3.0
26/01:00pm 11.0 2.8 8.4 84 1.3 NW 41 54 22 29 1002.3 1002.2 3.0
26/12:38pm 10.4 3.9 8.0 85 1.2 NW 32 50 17 27 1002.8 1002.7 3.0
26/12:30pm 10.3 3.9 8.4 88 1.0 NW 32 44 17 24 1003.0 1003.0 3.0
26/12:00pm 9.8 4.1 8.2 90 0.8 NW 28 35 15 19 1003.8 1003.7 2.2
26/11:30am 10.0 4.8 8.8 92 0.6 NW 26 37 14 20 1004.2 1004.1 2.2
26/11:00am 9.7 5.8 8.6 93 0.6 NW 19 24 10 13 1004.7 1004.7 1.8
26/10:30am 9.7 5.4 8.0 89 0.8 NW 20 32 11 17 1005.2 1005.1 0.4
26/10:14am 9.8 5.2 8.2 90 0.8 NW 22 32 12 17 1005.3 1005.2 0.0
26/10:00am 9.6 3.7 7.4 86 1.1 NW 28 41 15 22 1005.5 1005.4 0.0
26/09:30am 10.1 5.7 6.6 79 1.7 NW 19 32 10 17 1005.7 1005.7 0.0
26/09:23am 10.0 6.0 6.5 79 1.7 NW 17 22 9 12 1005.7 1005.7 0.0
26/09:00am 9.8 5.3 6.2 78 1.7 NW 19 24 10 13 1005.9 1005.9 0.0
26/08:30am 9.1 3.9 5.7 79 1.6 NW 22 30 12 16 1006.1 1006.1 0.0
26/08:11am 8.7 3.6 6.0 83 1.3 NW 22 30 12 16 1007.0 1007.0 0.0
26/08:01am 8.3 3.5 5.8 84 1.2 NW 20 30 11 16 1006.4 1006.4 0.0
26/08:00am 8.2 3.4 5.7 84 1.2 NW 20 30 11 16 1006.6 1006.5 0.0
26/07:43am 8.2 3.0 5.7 84 1.2 NW 22 32 12 17 1007.2 1007.2 0.0
26/07:30am 8.4 2.5 5.7 83 1.3 NW 26 35 14 19 1007.7 1007.7 0.0
26/07:24am 8.4 2.5 5.7 83 1.3 NW 26 37 14 20 1008.0 1008.0 0.0
26/07:00am 8.6 2.3 5.9 83 1.3 NW 28 39 15 21 1008.5 1008.5 0.0
26/06:30am 8.5 3.8 6.0 84 1.2 NW 20 30 11 16 1008.0 1008.0 0.0
26/06:00am 8.8 2.1 5.7 81 1.5 NW 30 39 16 21 1008.5 1008.5 0.0
26/05:30am 8.8 3.7 6.1 83 1.3 NW 22 30 12 16 1008.7 1008.7 0.0
26/05:00am 8.5 4.4 6.0 84 1.2 NW 17 22 9 12 1009.0 1009.0 0.0
26/04:30am 8.6 3.5 6.1 84 1.2 NW 22 32 12 17 1009.2 1009.2 0.0
26/04:00am 8.4 3.8 6.5 88 0.9 NW 20 28 11 15 1009.7 1009.8 0.0
26/03:30am 8.1 4.8 6.2 88 0.9 NW 13 19 7 10 1009.9 1009.9 0.0
26/03:00am 8.2 4.8 6.0 86 1.0 WNW 13 19 7 10 1010.6 1010.6 0.0
26/02:51am 8.2 5.2 5.8 85 1.1 WNW 11 15 6 8 1010.7 1010.7 0.0
26/02:30am 8.6 4.0 5.5 81 1.5 WNW 19 24 10 13 1011.0 1011.1 0.0
26/02:00am 8.9 3.7 5.3 78 1.7 WNW 22 28 12 15 1011.4 1011.5 0.0
26/01:49am 9.1 4.9 5.7 79 1.6 NW 17 32 9 17 1011.6 1011.6 0.0
26/01:30am 8.2 6.1 6.0 86 1.0 WNW 6 7 3 4 1011.9 1011.9 0.0
26/01:00am 7.8 6.9 5.9 88 0.9 CALM 0 0 0 0 1012.0 1012.0 0.0
26/12:30am 7.8 6.8 5.6 86 1.0 CALM 0 0 0 0 1012.2 1012.2 0.0
26/12:00am 8.0 5.9 5.6 85 1.1 NNE 6 6 3 3 1012.5 1012.6 0.0
 
Date/Time
EST
Tmp

°C
App
Tmp
°C
Dew
Point
°C
Rel
Hum
%
Delta-T

°C
Wind Press
QNH
hPa
Press
MSL
hPa
Rain
since
9 am
mm
Dir
 
Spd
km/h
Gust
km/h
Spd
kts
Gust
kts
25/11:30pm 7.6 5.5 5.9 89 0.8 N 6 7 3 4 1013.1 1013.2 0.0
25/11:00pm 6.7 4.3 4.5 86 1.0 WNW 6 7 3 4 1013.4 1013.4 0.0
25/10:30pm 7.5 4.7 5.0 84 1.1 NW 9 13 5 7 1013.3 1013.3 0.0
25/10:00pm 8.3 5.4 4.9 79 1.6 NNW 9 11 5 6 1013.5 1013.5 0.0
25/09:51pm 8.8 6.1 5.4 79 1.6 NW 9 13 5 7 1013.8 1013.9 0.0
25/09:36pm 9.0 5.5 5.4 78 1.7 NW 13 17 7 9 1014.1 1014.2 0.0
25/09:30pm 9.0 5.5 5.4 78 1.7 NW 13 17 7 9 1014.2 1014.3 0.0
25/09:00pm 9.0 5.4 5.2 77 1.8 NNW 13 17 7 9 1014.2 1014.3 0.0
25/08:30pm 8.8 5.2 5.2 78 1.7 NW 13 15 7 8 1014.4 1014.5 0.0
25/08:00pm 8.9 5.7 5.1 77 1.8 NW 11 15 6 8 1014.7 1014.8 0.0
25/07:30pm 9.2 5.3 5.2 76 1.9 WNW 15 19 8 10 1014.6 1014.7 0.0
25/07:00pm 8.8 5.2 5.0 77 1.8 WNW 13 15 7 8 1015.1 1015.2 0.0
25/06:30pm 9.1 4.3 4.7 74 2.0 WNW 19 22 10 12 1014.9 1014.9 0.0
25/06:00pm 9.6 4.6 4.6 71 2.3 WNW 20 24 11 13 1014.9 1014.9 0.0
25/05:30pm 10.0 4.2 4.6 69 2.5 WNW 24 32 13 17 1014.9 1014.9 0.0
25/05:00pm 10.0 3.9 4.6 69 2.5 WNW 26 35 14 19 1014.9 1014.9 0.0
25/04:30pm 10.5 4.0 4.9 68 2.6 WNW 28 35 15 19 1014.5 1014.6 0.0
25/04:00pm 10.8 3.5 4.5 65 2.9 WNW 32 41 17 22 1014.6 1014.7 0.0
25/03:30pm 11.3 4.4 4.5 63 3.2 WNW 30 39 16 21 1014.4 1014.5 0.0
25/03:00pm 11.7 4.2 3.5 57 3.8 WNW 32 41 17 22 1014.5 1014.6 0.0
25/02:30pm 11.9 4.8 3.7 57 3.8 WNW 30 41 16 22 1014.5 1014.6 0.0
25/02:00pm 13.0 5.9 3.7 53 4.3 WNW 30 39 16 21 1014.6 1014.7 0.0
25/01:30pm 12.6 6.6 3.6 54 4.2 W 24 32 13 17 1015.1 1015.2 0.0
25/01:00pm 12.2 6.1 2.9 53 4.2 WNW 24 33 13 18 1015.4 1015.5 0.0
25/12:30pm 11.8 5.0 3.3 56 3.9 W 28 37 15 20 1015.9 1016.0 0.0
25/12:00pm 12.0 5.1 2.7 53 4.2 W 28 39 15 21 1016.4 1016.6 0.0
25/11:30am 11.9 6.0 3.7 57 3.8 WNW 24 32 13 17 1017.0 1017.1 0.0
25/11:00am 11.4 5.8 3.2 57 3.7 WNW 22 33 12 18 1017.5 1017.6 0.0
25/10:30am 10.3 5.2 4.0 65 2.9 NW 20 26 11 14 1017.7 1017.9 0.0
25/10:00am 9.8 3.3 4.6 70 2.4 NW 28 33 15 18 1018.0 1018.2 0.0
25/09:39am 9.3 3.5 4.5 72 2.2 NW 24 33 13 18 1018.1 1018.3 0.0
25/09:30am 9.3 4.4 5.1 75 2.0 NW 20 26 11 14 1018.1 1018.3 0.0
25/09:10am 8.8 3.9 5.0 77 1.8 NW 20 26 11 14 1018.6 1018.7 0.0
25/09:00am 8.5 3.2 4.9 78 1.7 WNW 22 28 12 15 1018.8 1018.9 0.0
25/08:30am 7.4 2.1 4.9 84 1.1 NW 22 28 12 15 1018.7 1018.8 0.0
25/08:00am 5.9 0.7 3.7 86 1.0 NW 20 26 11 14 1018.5 1018.6 0.0
25/07:30am 5.0 -0.6 3.3 89 0.7 NW 22 24 12 13 1018.4 1018.5 0.0
25/07:00am 4.6 -2.6 2.8 88 0.8 NW 30 33 16 18 1017.9 1018.1 0.0
25/06:30am 4.8 -2.0 3.1 89 0.7 NW 28 35 15 19 1017.4 1017.5 0.0
25/06:28am 4.9 -1.8 3.4 90 0.6 NW 28 33 15 18 1017.4 1017.5 0.0
25/06:00am 2.0 -1.0 0.5 90 0.6 N 6 11 3 6 1017.3 1017.4 0.0
25/05:30am 2.8 -1.0 1.6 92 0.5 NW 11 15 6 8 1017.3 1017.4 0.0
25/05:00am 4.7 -0.1 2.6 86 0.9 NW 17 20 9 11 1017.4 1017.5 0.0
25/04:30am 4.6 -0.6 2.3 85 1.0 WNW 19 22 10 12 1017.3 1017.4 0.0
25/04:00am 5.4 -1.5 2.8 83 1.1 WNW 28 35 15 19 1017.1 1017.2 0.0
25/03:30am 4.9 -0.8 2.9 87 0.9 WNW 22 28 12 15 1017.2 1017.3 0.0
25/03:00am 4.5 1.6 2.5 87 0.8 N 7 13 4 7 1017.7 1017.9 0.0
25/02:30am 4.6 2.3 2.5 86 0.9 NNW 4 7 2 4 1017.9 1018.1 0.0
25/02:00am 5.3 1.3 2.8 84 1.1 WNW 13 20 7 11 1017.9 1018.1 0.0
25/01:30am 5.5 2.8 2.8 83 1.2 SW 6 9 3 5 1018.1 1018.3 0.0
25/01:00am 5.6 2.9 2.6 81 1.3 N 6 9 3 5 1018.3 1018.4 0.0
25/12:30am 6.5 1.4 3.1 79 1.5 W 19 30 10 16 1018.4 1018.5 0.0
25/12:00am 7.1 -0.4 3.5 78 1.6 W 32 43 17 23 1018.1 1018.3 0.0
 
Date/Time
EST
Tmp

°C
App
Tmp
°C
Dew
Point
°C
Rel
Hum
%
Delta-T

°C
Wind Press
QNH
hPa
Press
MSL
hPa
Rain
since
9 am
mm
Dir
 
Spd
km/h
Gust
km/h
Spd
kts
Gust
kts
24/11:30pm 7.2 -0.9 3.4 77 1.7 W 35 44 19 24 1018.1 1018.3 0.0
24/11:00pm 7.0 0.3 3.4 78 1.6 W 28 39 15 21 1018.5 1018.6 0.0
24/10:30pm 7.0 -0.7 3.3 77 1.6 W 33 43 18 23 1018.5 1018.6 0.0
24/10:00pm 7.1 -0.6 3.2 76 1.7 W 33 43 18 23 1018.6 1018.7 0.0
24/09:30pm 7.1 -0.4 3.3 77 1.7 W 32 39 17 21 1018.6 1018.7 0.0
24/09:00pm 7.5 -0.2 3.6 76 1.7 W 33 44 18 24 1018.7 1018.8 0.0
24/08:30pm 7.6 -0.8 3.6 76 1.8 W 37 48 20 26 1018.6 1018.7 0.0
24/08:00pm 7.8 -0.3 3.5 74 1.9 W 35 46 19 25 1018.4 1018.5 0.0
24/07:30pm 8.1 0.1 3.6 73 2.0 W 35 44 19 24 1018.1 1018.3 0.0
24/07:00pm 8.1 -0.4 3.2 71 2.2 W 37 48 20 26 1017.7 1017.9 0.0
24/06:30pm 8.3 -0.6 3.2 70 2.3 W 39 52 21 28 1017.5 1017.6 0.0
24/06:00pm 8.7 -0.2 3.1 68 2.5 W 39 50 21 27 1017.2 1017.3 0.0
24/05:30pm 8.9 0.0 3.1 67 2.6 W 39 48 21 26 1017.0 1017.1 0.0
24/05:00pm 9.3 1.6 3.3 66 2.7 WNW 33 39 18 21 1016.8 1016.9 0.0
24/04:30pm 10.3 0.6 2.9 60 3.3 WNW 43 57 23 31 1016.6 1016.7 0.0
24/04:00pm 11.0 1.2 3.1 58 3.6 WNW 44 57 24 31 1016.7 1016.8 0.0
24/03:30pm 11.5 1.8 3.0 56 3.9 WNW 43 59 23 32 1016.6 1016.7 0.0
24/03:26pm 11.7 2.4 3.0 55 4.0 W 41 59 22 32 1016.4 1016.6 0.0
24/03:00pm 12.2 3.3 2.9 53 4.2 WNW 39 56 21 30 1016.4 1016.6 0.0
24/02:55pm 12.0 3.4 2.7 53 4.2 WNW 37 56 20 30 1016.4 1016.6 0.0
24/02:30pm 12.4 3.5 2.8 52 4.4 WNW 39 50 21 27 1016.2 1016.3 0.0
24/02:00pm 12.5 3.6 2.9 52 4.4 W 39 54 21 29 1016.4 1016.6 0.0
24/01:30pm 12.5 3.6 2.9 52 4.4 WNW 39 50 21 27 1016.3 1016.5 0.0
24/01:00pm 12.4 5.2 3.1 53 4.3 W 30 44 16 24 1016.8 1016.9 0.0
24/12:30pm 12.3 3.0 3.0 53 4.2 WNW 41 54 22 29 1017.1 1017.2 0.0
24/12:00pm 11.9 3.3 2.6 53 4.2 WNW 37 50 20 27 1017.2 1017.3 0.0
24/11:30am 11.8 2.9 2.8 54 4.1 WNW 39 50 21 27 1017.5 1017.6 0.0
24/11:20am 11.7 3.5 2.5 53 4.1 WNW 35 56 19 30 1017.6 1017.8 0.0
24/11:00am 11.3 2.6 2.3 54 4.0 WNW 37 48 20 26 1018.0 1018.2 0.0
24/10:30am 10.5 1.5 2.6 58 3.5 WNW 39 50 21 27 1018.4 1018.5 0.0
24/10:00am 10.2 2.4 3.0 61 3.2 WNW 33 48 18 26 1018.6 1018.7 0.0
24/09:30am 9.6 2.1 3.6 66 2.7 WNW 32 43 17 23 1018.8 1018.9 0.0
24/09:11am 9.0 3.0 3.4 68 2.5 WNW 24 39 13 21 1019.0 1019.2 0.0
24/09:00am 9.1 3.7 4.3 72 2.2 WNW 22 32 12 17 1018.9 1019.0 0.0
24/08:30am 8.1 3.2 4.1 76 1.8 WNW 19 28 10 15 1019.1 1019.3 0.0
24/08:00am 8.2 3.8 4.6 78 1.6 W 17 24 9 13 1019.0 1019.2 0.0
24/07:30am 7.3 3.2 4.3 81 1.4 WNW 15 20 8 11 1018.8 1018.9 0.0
24/07:11am 6.8 2.2 3.8 81 1.3 WNW 17 24 9 13 1018.5 1018.6 0.0
24/07:00am 6.9 1.8 3.9 81 1.3 WNW 20 32 11 17 1018.1 1018.3 0.0
24/06:30am 6.7 2.1 3.5 80 1.4 WNW 17 26 9 14 1017.8 1018.0 0.0
24/06:00am 7.1 2.8 3.5 78 1.6 WNW 15 22 8 12 1017.6 1017.8 0.0
24/05:30am 6.9 3.3 3.2 77 1.6 W 11 17 6 9 1017.7 1017.9 0.0
24/05:05am 7.1 2.8 3.3 77 1.7 WNW 15 22 8 12 1017.8 1018.0 0.0
24/05:00am 7.2 2.5 3.4 77 1.7 WNW 17 22 9 12 1017.9 1018.1 0.0
24/04:30am 7.2 2.3 4.2 81 1.3 W 19 28 10 15 1018.1 1018.3 0.0
24/04:01am 6.9 1.4 4.0 82 1.3 WNW 22 35 12 19 1018.1 1018.3 0.0
24/04:00am 6.9 1.4 4.0 82 1.3 WNW 22 35 12 19 1018.3 1018.4 0.0
24/03:30am 6.4 1.4 3.4 81 1.3 WNW 19 22 10 12 1018.3 1018.4 0.0
24/03:00am 6.9 1.3 3.3 78 1.6 WNW 22 28 12 15 1018.6 1018.7 0.0
24/02:30am 6.7 1.4 2.8 76 1.7 WNW 20 28 11 15 1018.7 1018.8 0.0
24/02:00am 6.0 1.1 2.3 77 1.6 NW 17 24 9 13 1018.7 1018.8 0.0
24/01:30am 6.6 1.2 2.3 74 1.8 WNW 20 28 11 15 1018.7 1018.8 0.0
24/01:00am 6.6 -0.3 2.5 75 1.8 WNW 28 37 15 20 1018.6 1018.7 0.0
24/12:30am 6.4 -0.1 2.7 77 1.6 WNW 26 35 14 19 1018.7 1018.8 0.0
24/12:00am 6.2 2.5 2.3 76 1.7 WNW 11 19 6 10 1019.2 1019.4 0.0
 
Date/Time
EST
Tmp

°C
App
Tmp
°C
Dew
Point
°C
Rel
Hum
%
Delta-T

°C
Wind Press
QNH
hPa
Press
MSL
hPa
Rain
since
9 am
mm
Dir
 
Spd
km/h
Gust
km/h
Spd
kts
Gust
kts
23/11:30pm 6.7 0.9 2.4 74 1.8 NW 22 32 12 17 1018.9 1019.0 0.0
23/11:00pm 6.8 1.4 2.5 74 1.8 WNW 20 30 11 16 1019.2 1019.4 0.0

Latest Capital City Observations: Canberra | Sydney | Melbourne | Brisbane | Adelaide | Perth | Hobart | Darwin

Other Formats:

Comma delimited format used in spreadsheet applications
http://www.bom.gov.au/fwo/IDN60903/IDN60903.95716.axf

JavaScript Object Notation format (JSON) in row-major order
http://www.bom.gov.au/fwo/IDN60903/IDN60903.95716.json